Prospect Creek, Prospect Cree, AK

4:46 PM AKDT on July 31, 2015 (GMT -0800)
Bettles | | Change Station
CLOSE
Current Station
Airport
Location: Bettles,
Elevation: 643 ft
Nearby Weather Stations
Active Advisory: Dense Smoke Advisory

Elev 643 ft 66.91 °N, 151.53 °W | Updated 53 minutes ago

Mostly Cloudy
Mostly Cloudy
70 °F
Feels Like 70 °F
N
17
Wind Variable Wind from WSW
Gusts 26 mph

Today
High -- | Low -- °F
--% Chance of Precip.
Yesterday
High -- | Low -- °F
Precip. -- in
4:32 AM 11:41 PM
Full, 100% visible
Pressure 29.97 in
Visibility 10.0 miles
Clouds Scattered Clouds 5000 ft
Scattered Clouds 12000 ft
Mostly Cloudy 19000 ft
Dew Point 41 °F
Humidity 35%
Rainfall 0.00 in
Snow Depth Not available.
UV 3 out of 12
Pollen Not available.
Air Quality Not available.
Flu Activity Not available.
METAR PABT 312353Z 25015G23KT 10SM SCT050 SCT120 BKN190 21/05 A2995 RMK SLP147 FU DSNT SE-S T02110050 10211 20128 58007 $ VIA AUTODIAL

More Conditions Fewer Conditions

Pressure 29.97 in
Visibility 10.0 miles
Clouds Scattered Clouds 5000 ft
Scattered Clouds 12000 ft
Mostly Cloudy 19000 ft
Dew Point 41 °F
Humidity 35%
Rainfall 0.00 in
Snow Depth Not available.
UV 3 out of 12
Pollen Not available.
Air Quality Not available.
Flu Activity Not available.
METAR PABT 312353Z 25015G23KT 10SM SCT050 SCT120 BKN190 21/05 A2995 RMK SLP147 FU DSNT SE-S T02110050 10211 20128 58007 $ VIA AUTODIAL

More Conditions Fewer Conditions

10-Day Weather Forecast

×

Almanac

Astronomy

Jul. 31, 2015 Rise Set
Actual Time
Civil Twilight
Nautical Twilight
Astronomical Twilight
Moon
Length of Visible Light
Length of Day
Tomorrow will be .
, % of the Moon is Illuminated

Today's Extremes

State Highs State Lows

Community

WunderPhotos

Upload Photos

1,842,781 photos uploaded!

WunderBlogs® & News

Nearby

Air Quality

  Air Quality AQ Index Pollutant
Not available.

Snow Depth

Station Depth Elevation

Earthquake Activity

City Distance Mag. Time & Date
Minimum magnitude displayed is 2.5.

Coastal Water Temperatures

Place Temperature

Stations

Nearby Weather Stations

Station Location Temp. Windchill Dew Point Humidity Wind Precip. Elev Updated Type
                   
Dense Smoke Advisory
Statement as of 11:59 AM AKDT on July 31, 2015

... Dense smoke advisory now in effect until noon akdt Saturday...

* visibility... will be less than 1 mile at times due to dense
smoke.

* Timing... dense smoke will thin some this afternoon as the smoke
mixes higher in the atmosphere... however dense smoke will
develop again this evening as smoke settles.

Precautionary/preparedness actions...

A dense smoke advisory means visibilities are limited to one mile
or less in wildfire smoke. If outdoors... prolonged physical
exertion should be reduced or stopped.